Bald Head Island, North Carolina
Current Conditions -  °F | °C
As of 10:35 PM on Saturday 22 Nov 2014 (Local Time) from KSUT Reporting Station
Clear Clear  
Wind Chill: 46°   Ceiling: Unl
Heat Index: 48°   Visibility: 7mi
Dew Point: 47°   Wind: 5mph
Humidity: 97%   Direction: 40°NE
Pressure: 30.33"   Gusts: NA
Location:  34.0734°N, 78.0547°W
Report Text: KSUT 230335Z AUTO 04004KT 7SM CLR 09/09 A3033 RMK AO2 T00900085
Loading
Personal Weather Stations






























Interactive Weather Map New forecast layout! Learn more

10-Day Weather Forecast

Advertisements
Track Severe Weather on mobile